Terminal Aerodrome Forecast
Issued by NWS

Home | Current Version | Previous Version | Text Only | Print | Product List | Glossary On
Versions: 1 2 3 4 5 6 7 8 9 10 11 12 13
134
FTUS42 KTBW 192339
TAFPGD
TAF
KPGD 192339Z 2000/2024 29010KT P6SM SKC
     FM200200 33004KT P6SM FEW030 FEW250
     FM200900 VRB03KT 5SM BR SCT008
     FM201300 02007KT P6SM FEW030
     FM201900 27012KT P6SM SKC=

USA.gov is the U.S. government's official web portal to all federal, state and local government web resources and services.